createdAt,value
2023-02-18T00:01:02.970Z,7.34
2023-02-18T00:03:31.612Z,7.40
2023-02-18T00:05:59.585Z,7.36
2023-02-18T00:08:28.978Z,7.44
2023-02-18T00:10:56.894Z,7.35
2023-02-18T00:13:24.852Z,7.43
2023-02-18T00:15:52.826Z,7.44
2023-02-18T00:18:20.798Z,7.46
2023-02-18T00:20:48.774Z,7.51
2023-02-18T00:23:16.722Z,7.52
2023-02-18T00:25:46.062Z,7.37
2023-02-18T00:28:14.006Z,7.27
2023-02-18T00:30:42.356Z,7.33
2023-02-18T00:33:10.481Z,7.20
2023-02-18T00:35:38.445Z,7.07
2023-02-18T00:38:06.440Z,7.08
2023-02-18T00:40:34.404Z,7.09
2023-02-18T00:43:03.672Z,6.90
2023-02-18T00:45:31.944Z,6.90
2023-02-18T00:47:59.880Z,6.53
2023-02-18T00:50:27.911Z,6.49
2023-02-18T00:52:55.802Z,6.39
2023-02-18T00:55:23.714Z,6.23
2023-02-18T00:57:51.728Z,6.21
2023-02-18T01:00:21.508Z,6.36
2023-02-18T01:02:54.009Z,6.19
2023-02-18T01:05:22.282Z,6.16
2023-02-18T01:07:50.207Z,6.24
2023-02-18T01:10:19.267Z,6.32
2023-02-18T01:12:48.480Z,6.14
2023-02-18T01:15:17.291Z,6.08
2023-02-18T01:17:46.751Z,6.07
2023-02-18T01:20:15.512Z,6.19
2023-02-18T01:22:43.617Z,6.20
2023-02-18T01:25:12.508Z,6.17
2023-02-18T01:27:40.448Z,6.18
2023-02-18T01:30:10.772Z,6.21
2023-02-18T01:32:39.240Z,6.21
2023-02-18T01:35:09.624Z,6.15
2023-02-18T01:37:37.728Z,6.18
2023-02-18T01:40:09.445Z,6.15
2023-02-18T01:42:37.481Z,6.16
2023-02-18T01:45:48.874Z,6.15
2023-02-18T01:48:21.400Z,6.13
2023-02-18T01:50:54.419Z,6.05
2023-02-18T01:53:27.348Z,6.25
2023-02-18T01:55:55.567Z,6.04
2023-02-18T01:58:24.301Z,5.90
2023-02-18T02:00:52.361Z,5.98
2023-02-18T02:03:20.416Z,6.05
2023-02-18T02:05:48.321Z,6.10
2023-02-18T02:08:17.869Z,6.20
2023-02-18T02:11:02.602Z,6.05
2023-02-18T02:13:45.482Z,6.03
2023-02-18T02:16:23.427Z,6.10
2023-02-18T02:19:01.433Z,6.24
2023-02-18T02:21:57.326Z,6.23
2023-02-18T02:24:55.550Z,6.31
2023-02-18T02:27:30.042Z,6.37
2023-02-18T02:30:38.171Z,6.22
2023-02-18T02:33:48.835Z,6.02
2023-02-18T02:36:24.569Z,6.12
2023-02-18T02:39:01.783Z,5.94
2023-02-18T02:41:42.172Z,5.82
2023-02-18T02:44:21.194Z,5.77
2023-02-18T02:46:52.736Z,5.84
2023-02-18T02:49:29.877Z,5.65
2023-02-18T02:52:04.459Z,5.23
2023-02-18T02:54:32.688Z,5.48
2023-02-18T02:57:07.511Z,5.77
2023-02-18T02:59:39.268Z,5.60
2023-02-18T03:02:26.252Z,5.64
2023-02-18T03:05:17.462Z,5.49
2023-02-18T03:08:15.212Z,5.47
2023-02-18T03:10:50.631Z,5.54
2023-02-18T03:13:30.259Z,5.77
2023-02-18T03:16:07.100Z,5.77
2023-02-18T03:18:39.044Z,6.05
2023-02-18T03:21:10.860Z,6.11
2023-02-18T03:23:46.272Z,6.04
2023-02-18T03:26:16.941Z,6.21
2023-02-18T03:28:47.179Z,6.26
2023-02-18T03:31:21.237Z,6.29
2023-02-18T03:33:53.458Z,6.28
2023-02-18T03:36:23.188Z,6.23
2023-02-18T03:38:58.040Z,6.24
2023-02-18T03:41:26.003Z,6.23
2023-02-18T03:43:55.355Z,6.30
2023-02-18T03:46:23.543Z,6.33
2023-02-18T03:48:51.840Z,6.29
2023-02-18T03:51:19.974Z,5.85
2023-02-18T03:53:47.914Z,5.78
2023-02-18T03:56:17.750Z,5.97
2023-02-18T03:58:45.717Z,6.09
2023-02-18T04:01:14.101Z,5.63
2023-02-18T04:03:42.061Z,5.63
2023-02-18T04:06:10.631Z,5.26
2023-02-18T04:08:38.780Z,5.29
2023-02-18T04:11:06.820Z,5.26
2023-02-18T04:13:36.176Z,5.44
2023-02-18T04:16:04.177Z,5.33
2023-02-18T04:18:32.143Z,5.13
2023-02-18T04:21:00.165Z,5.13
2023-02-18T04:23:28.224Z,5.22
2023-02-18T04:25:56.277Z,5.24
2023-02-18T04:28:24.192Z,5.27
2023-02-18T04:30:53.625Z,5.42
2023-02-18T04:33:21.562Z,5.39
2023-02-18T04:35:49.495Z,5.56
2023-02-18T04:38:17.449Z,5.59
2023-02-18T04:40:45.431Z,5.67
2023-02-18T04:43:13.464Z,5.77
2023-02-18T04:45:41.347Z,5.82
2023-02-18T04:48:10.587Z,5.96
2023-02-18T04:50:38.666Z,6.13
2023-02-18T04:53:06.623Z,6.20
2023-02-18T04:55:34.643Z,6.18
2023-02-18T04:58:02.605Z,6.39
2023-02-18T05:00:30.582Z,6.33
2023-02-18T05:02:58.526Z,6.36
2023-02-18T05:05:27.821Z,6.50
2023-02-18T05:07:55.748Z,6.51
2023-02-18T05:10:23.819Z,6.55
2023-02-18T05:12:51.911Z,6.48
2023-02-18T05:15:20.147Z,6.47
2023-02-18T05:17:48.061Z,6.54
2023-02-18T05:20:15.981Z,6.44
2023-02-18T05:22:45.282Z,6.52
2023-02-18T05:25:13.209Z,6.57
2023-02-18T05:27:41.134Z,6.33
2023-02-18T05:30:10.071Z,6.38
2023-02-18T05:32:38.078Z,6.55
2023-02-18T05:35:06.672Z,6.61
2023-02-18T05:37:34.566Z,6.59
2023-02-18T05:40:04.199Z,6.77
2023-02-18T05:42:32.990Z,6.83
2023-02-18T05:45:00.912Z,6.88
2023-02-18T05:47:28.912Z,6.99
2023-02-18T05:49:57.088Z,7.04
2023-02-18T05:52:25.153Z,6.89
2023-02-18T05:54:53.085Z,7.27
2023-02-18T05:57:22.449Z,7.42
2023-02-18T05:59:50.638Z,7.48
2023-02-18T06:02:18.602Z,7.61
2023-02-18T06:04:46.615Z,7.78
2023-02-18T06:07:14.669Z,7.94
2023-02-18T06:09:43.006Z,8.02
2023-02-18T06:12:11.040Z,8.16
2023-02-18T06:14:42.262Z,8.22
2023-02-18T06:17:10.989Z,8.24
2023-02-18T06:19:39.043Z,8.50
2023-02-18T06:22:07.198Z,8.53
2023-02-18T06:24:35.279Z,8.72
2023-02-18T06:27:03.460Z,8.74
2023-02-18T06:29:31.919Z,8.76
2023-02-18T06:32:01.429Z,9.03
2023-02-18T06:34:29.796Z,9.19
2023-02-18T06:36:59.025Z,9.30
2023-02-18T06:39:27.924Z,9.45
2023-02-18T06:41:55.809Z,9.57
2023-02-18T06:44:23.760Z,9.74
2023-02-18T06:46:51.731Z,9.80
2023-02-18T06:49:21.065Z,9.97
2023-02-18T06:51:49.043Z,10.11
2023-02-18T06:54:16.924Z,10.29
2023-02-18T06:56:44.889Z,10.40
2023-02-18T06:59:12.817Z,10.61
2023-02-18T07:01:40.809Z,10.74
2023-02-18T07:04:08.868Z,10.80
2023-02-18T07:06:38.439Z,11.03
2023-02-18T07:09:06.730Z,11.19
2023-02-18T07:11:34.727Z,11.43
2023-02-18T07:14:02.589Z,11.43
2023-02-18T07:16:30.649Z,11.62
2023-02-18T07:18:58.721Z,11.67
2023-02-18T07:21:26.652Z,11.86
2023-02-18T07:23:55.941Z,11.82
2023-02-18T07:26:23.880Z,11.86
2023-02-18T07:28:51.882Z,11.95
2023-02-18T07:31:19.926Z,12.17
2023-02-18T07:33:47.943Z,12.33
2023-02-18T07:36:15.923Z,12.26
2023-02-18T07:38:43.926Z,11.92
2023-02-18T07:41:20.290Z,11.92
2023-02-18T07:43:48.751Z,12.01
2023-02-18T07:46:17.162Z,12.09
2023-02-18T07:48:45.106Z,12.20
2023-02-18T07:51:13.995Z,12.03
2023-02-18T07:53:41.997Z,11.91
2023-02-18T07:56:10.325Z,11.90
2023-02-18T07:58:40.710Z,11.80
2023-02-18T08:01:11.098Z,11.63
2023-02-18T08:03:40.874Z,11.99
2023-02-18T08:06:09.761Z,12.34
2023-02-18T08:08:37.957Z,12.55
2023-02-18T08:11:18.470Z,12.69
2023-02-18T08:13:49.276Z,12.96
2023-02-18T08:16:17.978Z,13.01
2023-02-18T08:18:47.934Z,13.68
2023-02-18T08:21:15.986Z,14.12
2023-02-18T08:23:44.073Z,13.94
2023-02-18T08:26:12.528Z,13.50
2023-02-18T08:28:40.523Z,13.44
2023-02-18T08:31:17.771Z,13.18
2023-02-18T08:33:45.773Z,13.20
2023-02-18T08:36:13.712Z,13.20
2023-02-18T08:38:41.805Z,13.49
2023-02-18T08:41:11.100Z,13.85
2023-02-18T08:43:39.179Z,14.15
2023-02-18T08:46:07.426Z,14.66
2023-02-18T08:48:36.777Z,14.88
2023-02-18T08:51:16.685Z,15.14
2023-02-18T08:53:46.314Z,14.54
2023-02-18T08:56:15.608Z,14.36
2023-02-18T08:58:43.848Z,14.65
2023-02-18T09:01:14.041Z,15.25
2023-02-18T09:03:43.340Z,16.13
2023-02-18T09:06:11.295Z,16.01
2023-02-18T09:08:39.207Z,15.89
2023-02-18T09:11:08.280Z,15.51
2023-02-18T09:13:36.493Z,15.56
2023-02-18T09:16:06.776Z,15.97
2023-02-18T09:18:35.983Z,15.68
2023-02-18T09:21:07.412Z,15.69
2023-02-18T09:23:36.128Z,16.26
2023-02-18T09:26:06.705Z,16.76
2023-02-18T09:28:34.724Z,16.90
2023-02-18T09:31:06.749Z,17.02
2023-02-18T09:33:36.710Z,16.82
2023-02-18T09:36:06.603Z,16.88
2023-02-18T09:38:34.928Z,16.31
2023-02-18T09:41:06.758Z,16.16
2023-02-18T09:43:37.567Z,15.93
2023-02-18T09:46:15.828Z,16.11
2023-02-18T09:48:45.741Z,16.90
2023-02-18T09:51:16.791Z,17.31
2023-02-18T09:53:46.696Z,17.25
2023-02-18T09:56:19.586Z,17.41
2023-02-18T09:58:48.873Z,17.59
2023-02-18T10:01:22.764Z,18.20
2023-02-18T10:03:50.876Z,18.73
2023-02-18T10:06:25.081Z,18.70
2023-02-18T10:08:55.684Z,17.98
2023-02-18T10:11:29.905Z,17.76
2023-02-18T10:13:58.562Z,17.65
2023-02-18T10:16:26.993Z,17.94
2023-02-18T10:18:57.864Z,18.22
2023-02-18T10:21:30.603Z,18.40
2023-02-18T10:24:03.081Z,17.70
2023-02-18T10:26:34.932Z,17.34
2023-02-18T10:29:03.239Z,17.21
2023-02-18T10:31:36.914Z,17.41
2023-02-18T10:34:16.464Z,17.66
2023-02-18T10:36:47.308Z,17.23
2023-02-18T10:39:40.315Z,17.54
2023-02-18T10:42:21.168Z,18.14
2023-02-18T10:45:04.809Z,18.38
2023-02-18T10:47:40.324Z,18.11
2023-02-18T10:50:14.974Z,18.40
2023-02-18T10:52:46.854Z,18.10
2023-02-18T10:55:18.738Z,18.07
2023-02-18T10:57:48.354Z,18.27
2023-02-18T11:00:24.042Z,18.10
2023-02-18T11:03:12.335Z,18.33
2023-02-18T11:05:40.484Z,18.70
2023-02-18T11:08:15.554Z,18.73
2023-02-18T11:10:46.143Z,18.93
2023-02-18T11:13:17.346Z,19.17
2023-02-18T11:15:57.790Z,19.07
2023-02-18T11:18:32.587Z,19.20
2023-02-18T11:21:02.077Z,19.03
2023-02-18T11:23:31.721Z,18.70
2023-02-18T11:26:03.392Z,18.37
2023-02-18T11:28:49.903Z,18.57
2023-02-18T11:31:23.307Z,18.85
2023-02-18T11:33:54.531Z,18.51
2023-02-18T11:36:27.105Z,18.52
2023-02-18T11:38:58.684Z,18.19
2023-02-18T11:41:35.024Z,18.56
2023-02-18T11:44:06.576Z,18.69
2023-02-18T11:46:35.019Z,18.52
2023-02-18T11:49:23.251Z,18.48
2023-02-18T11:51:51.680Z,18.58
2023-02-18T11:54:26.497Z,18.59
2023-02-18T11:57:00.106Z,18.62
2023-02-18T11:59:30.502Z,18.82
2023-02-18T12:02:07.150Z,18.90
2023-02-18T12:04:41.969Z,19.02
2023-02-18T12:07:18.635Z,18.99
2023-02-18T12:09:50.736Z,19.10
2023-02-18T12:12:25.895Z,19.21
2023-02-18T12:14:56.997Z,19.20
2023-02-18T12:17:52.628Z,19.38
2023-02-18T12:20:48.879Z,19.48
2023-02-18T12:23:23.616Z,19.41
2023-02-18T12:26:02.075Z,19.37
2023-02-18T12:28:46.521Z,19.74
2023-02-18T12:31:38.049Z,19.77
2023-02-18T12:34:30.504Z,19.48
2023-02-18T12:37:14.179Z,19.46
2023-02-18T12:40:01.798Z,19.79
2023-02-18T12:42:47.255Z,19.87
2023-02-18T12:45:36.136Z,19.82
2023-02-18T12:48:42.039Z,19.92
2023-02-18T12:51:24.885Z,19.58
2023-02-18T12:54:16.736Z,19.42
2023-02-18T12:57:23.180Z,19.26
2023-02-18T13:00:10.304Z,19.23
2023-02-18T13:03:09.269Z,19.15
2023-02-18T13:05:44.287Z,19.28
2023-02-18T13:08:35.990Z,19.04
2023-02-18T13:11:20.971Z,19.31
2023-02-18T13:13:57.076Z,19.42
2023-02-18T13:16:27.946Z,19.55
2023-02-18T13:19:03.116Z,19.28
2023-02-18T13:21:33.089Z,19.31
2023-02-18T13:24:04.193Z,19.22
2023-02-18T13:26:35.199Z,19.01
2023-02-18T13:29:25.658Z,19.12
2023-02-18T13:32:10.749Z,19.29
2023-02-18T13:34:48.206Z,19.33
2023-02-18T13:37:28.114Z,19.40
2023-02-18T13:39:58.312Z,19.46
2023-02-18T13:42:35.058Z,19.62
2023-02-18T13:45:33.673Z,19.42
2023-02-18T13:48:03.494Z,19.44
2023-02-18T13:50:43.182Z,19.14
2023-02-18T13:53:24.396Z,19.01
2023-02-18T13:56:02.487Z,18.70
2023-02-18T13:58:40.635Z,18.71
2023-02-18T14:01:21.998Z,18.58
2023-02-18T14:04:28.774Z,18.79
2023-02-18T14:07:24.694Z,18.75
2023-02-18T14:09:53.992Z,18.69
2023-02-18T14:12:44.363Z,18.58
2023-02-18T14:15:54.561Z,18.54
2023-02-18T14:18:31.724Z,18.53
2023-02-18T14:21:19.320Z,18.35
2023-02-18T14:24:06.180Z,18.43
2023-02-18T14:26:38.166Z,18.45
2023-02-18T14:29:19.119Z,18.16
2023-02-18T14:31:54.960Z,18.35
2023-02-18T14:34:54.343Z,18.29
2023-02-18T14:37:47.428Z,18.36
2023-02-18T14:40:28.782Z,18.24
2023-02-18T14:43:06.253Z,18.04
2023-02-18T14:46:05.252Z,17.76
2023-02-18T14:49:03.893Z,17.84
2023-02-18T14:51:34.453Z,17.69
2023-02-18T14:54:06.444Z,17.80
2023-02-18T14:56:39.593Z,17.68
2023-02-18T14:59:08.040Z,17.68
2023-02-18T15:01:36.934Z,17.67
2023-02-18T15:04:06.015Z,17.60
2023-02-18T15:06:36.219Z,17.53
2023-02-18T15:09:16.456Z,17.51
2023-02-18T15:11:48.681Z,17.40
2023-02-18T15:14:19.844Z,17.38
2023-02-18T15:16:49.586Z,17.25
2023-02-18T15:19:20.152Z,17.28
2023-02-18T15:21:50.086Z,17.20
2023-02-18T15:24:25.974Z,17.11
2023-02-18T15:27:00.056Z,17.08
2023-02-18T15:29:29.862Z,17.00
2023-02-18T15:31:59.544Z,16.83
2023-02-18T15:34:38.821Z,16.81
2023-02-18T15:37:08.908Z,16.75
2023-02-18T15:39:38.700Z,16.64
2023-02-18T15:42:18.234Z,16.58
2023-02-18T15:44:48.639Z,16.38
2023-02-18T15:47:18.609Z,16.22
2023-02-18T15:49:49.621Z,16.22
2023-02-18T15:52:17.671Z,16.17
2023-02-18T15:54:46.186Z,16.06
2023-02-18T15:57:17.871Z,16.13
2023-02-18T15:59:47.975Z,16.09
2023-02-18T16:02:20.354Z,15.99
2023-02-18T16:05:00.104Z,15.97
2023-02-18T16:07:30.029Z,15.96
2023-02-18T16:10:21.144Z,15.90
2023-02-18T16:12:53.475Z,15.96
2023-02-18T16:15:27.767Z,15.92
2023-02-18T16:17:56.071Z,15.29
2023-02-18T16:20:31.462Z,15.87
2023-02-18T16:23:03.232Z,15.85
2023-02-18T16:25:42.847Z,15.78
2023-02-18T16:28:16.907Z,15.61
2023-02-18T16:30:46.495Z,15.38
2023-02-18T16:33:15.136Z,15.33
2023-02-18T16:35:50.077Z,15.27
2023-02-18T16:38:20.420Z,15.20
2023-02-18T16:40:48.837Z,15.30
2023-02-18T16:43:20.108Z,15.26
2023-02-18T16:45:50.489Z,15.13
2023-02-18T16:48:24.038Z,14.96
2023-02-18T16:50:52.692Z,14.93
2023-02-18T16:53:21.210Z,14.86
2023-02-18T16:55:51.163Z,14.74
2023-02-18T16:58:20.642Z,14.80
2023-02-18T17:00:50.840Z,14.87
2023-02-18T17:03:19.388Z,14.79
2023-02-18T17:05:47.378Z,14.63
2023-02-18T17:08:23.045Z,14.43
2023-02-18T17:10:55.020Z,14.47
2023-02-18T17:13:27.658Z,14.43
2023-02-18T17:15:57.911Z,14.41
2023-02-18T17:18:26.948Z,14.38
2023-02-18T17:20:57.089Z,14.42
2023-02-18T17:23:25.728Z,14.41
2023-02-18T17:25:54.263Z,14.29
2023-02-18T17:28:23.168Z,14.32
2023-02-18T17:30:57.604Z,14.25
2023-02-18T17:33:26.562Z,14.08
2023-02-18T17:35:54.594Z,14.08
2023-02-18T17:38:22.612Z,14.12
2023-02-18T17:40:51.180Z,14.02
2023-02-18T17:43:19.938Z,13.98
2023-02-18T17:45:51.651Z,13.94
2023-02-18T17:48:21.778Z,13.83
2023-02-18T17:50:49.789Z,13.77
2023-02-18T17:53:19.388Z,13.77
2023-02-18T17:55:48.510Z,13.80
2023-02-18T17:58:17.482Z,13.86
2023-02-18T18:00:47.438Z,13.99
2023-02-18T18:03:16.241Z,13.84
2023-02-18T18:05:49.185Z,13.87
2023-02-18T18:08:17.673Z,13.90
2023-02-18T18:10:50.188Z,13.79
2023-02-18T18:13:21.906Z,13.74
2023-02-18T18:15:50.027Z,13.71
2023-02-18T18:18:18.542Z,13.74
2023-02-18T18:20:50.175Z,13.70
2023-02-18T18:23:20.103Z,13.67
2023-02-18T18:25:50.021Z,13.57
2023-02-18T18:28:20.682Z,13.63
2023-02-18T18:30:51.060Z,13.63
2023-02-18T18:33:22.591Z,13.55
2023-02-18T18:35:53.495Z,13.42
2023-02-18T18:38:22.508Z,13.50
2023-02-18T18:40:51.694Z,13.41
2023-02-18T18:43:22.974Z,13.33
2023-02-18T18:45:52.008Z,13.26
2023-02-18T18:48:21.162Z,13.38
2023-02-18T18:50:49.602Z,13.08
2023-02-18T18:53:21.904Z,13.23
2023-02-18T18:55:50.784Z,13.19
2023-02-18T18:58:20.990Z,13.08
2023-02-18T19:00:51.649Z,13.10
2023-02-18T19:03:20.401Z,13.10
2023-02-18T19:05:50.364Z,12.91
2023-02-18T19:08:20.559Z,12.87
2023-02-18T19:10:50.162Z,12.79
2023-02-18T19:13:19.769Z,12.72
2023-02-18T19:15:49.073Z,12.83
2023-02-18T19:18:20.306Z,12.72
2023-02-18T19:20:49.276Z,12.84
2023-02-18T19:23:17.287Z,12.80
2023-02-18T19:25:46.601Z,12.76
2023-02-18T19:28:14.749Z,12.76
2023-02-18T19:30:43.495Z,12.71
2023-02-18T19:33:14.248Z,12.91
2023-02-18T19:35:43.347Z,12.97
2023-02-18T19:38:12.408Z,13.03
2023-02-18T19:40:40.905Z,12.86
2023-02-18T19:43:11.157Z,12.99
2023-02-18T19:45:43.036Z,13.03
2023-02-18T19:48:12.159Z,12.96
2023-02-18T19:50:41.533Z,12.83
2023-02-18T19:53:10.161Z,12.86
2023-02-18T19:55:38.134Z,12.71
2023-02-18T19:58:06.044Z,12.51
2023-02-18T20:00:35.595Z,12.59
2023-02-18T20:03:03.607Z,12.52
2023-02-18T20:05:31.495Z,12.66
2023-02-18T20:07:59.336Z,12.59
2023-02-18T20:10:27.955Z,12.68
2023-02-18T20:12:56.005Z,12.66
2023-02-18T20:15:24.260Z,12.63
2023-02-18T20:17:53.771Z,12.68
2023-02-18T20:20:21.707Z,12.51
2023-02-18T20:22:49.706Z,12.49
2023-02-18T20:25:17.728Z,12.52
2023-02-18T20:27:59.861Z,12.53
2023-02-18T20:30:28.657Z,12.44
2023-02-18T20:32:57.992Z,12.43
2023-02-18T20:35:26.135Z,12.37
2023-02-18T20:37:54.133Z,12.34
2023-02-18T20:40:22.015Z,12.35
2023-02-18T20:42:50.118Z,12.39
2023-02-18T20:45:18.039Z,12.40
2023-02-18T20:47:46.279Z,12.40
2023-02-18T20:50:15.992Z,12.31
2023-02-18T20:52:44.086Z,12.31
2023-02-18T20:55:12.035Z,12.35
2023-02-18T20:57:40.082Z,12.28
2023-02-18T21:00:09.167Z,12.22
2023-02-18T21:02:37.329Z,12.15
2023-02-18T21:05:06.152Z,12.14
2023-02-18T21:07:35.530Z,12.12
2023-02-18T21:10:04.733Z,12.09
2023-02-18T21:12:32.696Z,12.13
2023-02-18T21:15:00.637Z,12.04
2023-02-18T21:17:28.608Z,11.98
2023-02-18T21:19:56.502Z,12.05
2023-02-18T21:22:24.496Z,12.02
2023-02-18T21:24:53.859Z,11.95
2023-02-18T21:27:21.877Z,11.79
2023-02-18T21:29:49.864Z,11.86
2023-02-18T21:32:17.876Z,11.82
2023-02-18T21:34:45.886Z,11.74
2023-02-18T21:37:13.750Z,11.74
2023-02-18T21:39:41.833Z,11.69
2023-02-18T21:42:11.106Z,11.65
2023-02-18T21:44:42.956Z,11.68
2023-02-18T21:47:11.825Z,11.60
2023-02-18T21:49:39.959Z,11.48
2023-02-18T21:52:09.577Z,11.48
2023-02-18T21:54:40.382Z,11.32
2023-02-18T21:57:11.899Z,11.40
2023-02-18T21:59:40.752Z,11.42
2023-02-18T22:02:15.530Z,11.40
2023-02-18T22:04:43.536Z,11.48
2023-02-18T22:07:11.572Z,11.35
2023-02-18T22:09:39.820Z,11.36
2023-02-18T22:12:08.366Z,11.45
2023-02-18T22:14:37.665Z,11.27
2023-02-18T22:17:05.720Z,11.25
2023-02-18T22:19:33.677Z,11.40
2023-02-18T22:22:02.617Z,11.29
2023-02-18T22:24:31.135Z,11.42
2023-02-18T22:27:01.480Z,11.42
2023-02-18T22:29:30.859Z,11.36
2023-02-18T22:32:00.532Z,11.38
2023-02-18T22:34:28.558Z,11.25
2023-02-18T22:36:56.485Z,11.23
2023-02-18T22:39:24.418Z,11.23
2023-02-18T22:41:52.402Z,11.13
2023-02-18T22:44:20.485Z,10.78
2023-02-18T22:46:48.439Z,10.79
2023-02-18T22:49:17.654Z,10.86
2023-02-18T22:51:46.085Z,11.01
2023-02-18T22:54:18.505Z,11.05
2023-02-18T22:56:47.377Z,11.05
2023-02-18T22:59:18.279Z,10.90
2023-02-18T23:01:49.799Z,11.03
2023-02-18T23:04:20.782Z,11.09
2023-02-18T23:06:49.306Z,11.06
2023-02-18T23:09:19.050Z,10.96
2023-02-18T23:11:47.043Z,10.88
2023-02-18T23:14:21.669Z,10.94
2023-02-18T23:17:09.338Z,10.94
2023-02-18T23:19:39.232Z,10.92
2023-02-18T23:22:07.432Z,11.02
2023-02-18T23:24:37.245Z,10.85
2023-02-18T23:27:06.428Z,10.92
2023-02-18T23:29:34.674Z,10.91
2023-02-18T23:32:02.864Z,10.58
2023-02-18T23:34:31.199Z,10.72
2023-02-18T23:37:00.511Z,10.73
2023-02-18T23:39:29.553Z,10.87
2023-02-18T23:41:57.749Z,10.98
2023-02-18T23:44:26.542Z,10.97
2023-02-18T23:46:54.646Z,11.05
2023-02-18T23:49:25.149Z,11.08
2023-02-18T23:51:54.878Z,11.08
2023-02-18T23:54:24.576Z,11.03
2023-02-18T23:56:52.598Z,11.10
2023-02-18T23:59:20.613Z,11.08
